Latest Coastal Weather Observations for Cape Leeuwin

IDW60701

Issued at 1:35 am WST Sunday 28 May 2017 (issued every 10 minutes, with the page automatically refreshed every 10 minutes)

About coastal observations | Map of coastal stations | Coastal observations for WA | Marine services | Other Formats
Station Details ID: 009518 Name: CAPE LEEUWIN Lat: -34.37 Lon: 115.14 Height: 13.0 m
Data from the previous 72 hours. | See also: Recent months at Cape Leeuwin
Date/Time
WST
Temp
°C
Wind Pressure Rain since
9am
mm
Weather Cloud Vis
km
Sea
Height
m
Swell
Dir  Spd
kts
Gust
kts
hPa Trend Height
m
Period
s
Dir
28/01:30am 14.0 SSE 8 10 1027.4 - 1.0 - - - - - - -
28/01:00am 14.1 SE 11 14 1027.5 - 1.0 - - - - - - -
28/12:30am 14.0 SSE 12 15 1027.7 - 1.0 - - - - - - -
28/12:00am 13.4 NE 7 9 1027.6 - 1.0 Recent precip. - - - - - -
 
Date/Time
WST
Temp
°C
Wind Pressure Rain since
9am
mm
Weather Cloud Vis
km
Sea
Height
m
Swell
Dir  Spd
kts
Gust
kts
hPa Trend Height
m
Period
s
Dir
27/11:30pm 13.9 SSE 8 12 1027.7 - 1.0 - - - - - - -
27/11:00pm 13.9 SSE 7 11 1027.9 - 0.8 - - - - - - -
27/10:30pm 14.3 SSE 12 16 1028.0 - 0.8 - - - - - - -
27/10:00pm 13.8 SSE 13 19 1028.0 - 0.8 - - - - - - -
27/09:30pm 13.8 SE 8 11 1028.1 - 0.8 - - - - - - -
27/09:00pm 14.2 S 12 17 1028.1 - 0.4 - - - - - - -
27/08:30pm 13.5 S 13 15 1028.0 - 0.4 - - - - - - -
27/08:00pm 13.7 S 15 18 1027.9 - 0.4 - - - - - - -
27/07:30pm 14.0 SSE 13 16 1027.8 - 0.4 - - - - - - -
27/07:00pm 13.8 ESE 14 18 1027.6 - 0.4 - - - - - - -
27/06:30pm 13.8 SE 9 13 1027.4 - 0.0 - - - - - - -
27/06:00pm 14.0 SE 14 17 1027.1 - 0.0 - - - - - - -
27/05:30pm 14.4 SE 15 20 1026.8 - 0.0 - - - - - - -
27/05:00pm 14.7 ESE 8 12 1026.7 - 0.0 - - - - - - -
27/04:30pm 15.0 SSE 9 13 1026.7 - 0.0 - - - - - - -
27/04:00pm 15.7 SSE 11 16 1026.7 - 0.0 - - - - - - -
27/03:30pm 15.9 SSE 9 13 1026.5 - 0.0 - - - - - - -
27/03:00pm 16.2 S 9 13 1026.4 - 0.0 - - - - - - -
27/02:30pm 17.2 S 7 11 1026.3 - 0.0 - - - - - - -
27/02:00pm 16.0 SSE 6 8 1026.4 - 0.0 - - - - - - -
27/01:30pm 16.0 SE 6 9 1026.5 - 0.0 - - - - - - -
27/01:00pm 16.0 SSE 10 14 1026.8 - 0.0 - - - - - - -
27/12:30pm 15.9 SE 9 13 1026.8 - 0.0 - - - - - - -
27/12:00pm 15.4 S 10 13 1027.1 - 0.0 - - - - - - -
27/11:30am 15.7 S 9 13 1027.3 - 0.0 - - - - - - -
27/11:00am 17.1 S 7 14 1027.3 - 0.0 - - - - - - -
27/10:30am 15.4 S 11 14 1027.3 - 0.0 - - - - - - -
27/10:00am 15.2 SSE 11 17 1027.3 - 0.0 - - - - - - -
27/09:30am 14.8 S 13 20 1027.2 - 0.0 - - - - - - -
27/09:00am 14.6 SSE 11 17 1026.9 - 1.2 - - - - - - -
27/08:30am 13.8 S 11 15 1026.8 - 1.2 - - - - - - -
27/08:00am 13.4 S 16 22 1026.6 - 1.2 - - - - - - -
27/07:30am 13.5 S 11 16 1026.2 - 1.2 - - - - - - -
27/07:00am 13.3 S 12 15 1025.9 - 1.2 - - - - - - -
27/06:30am 13.7 S 13 21 1025.5 - 1.2 - - - - - - -
27/06:00am 13.8 SSE 13 18 1025.4 - 1.2 Recent precip. - - - - - -
27/05:30am 13.2 SSW 9 15 1025.2 - 0.8 - - - - - - -
27/05:00am 12.9 SSE 10 15 1025.2 - 0.8 - - - - - - -
27/04:30am 13.5 SSW 13 19 1025.0 - 0.8 - - - - - - -
27/04:00am 13.4 SSW 13 17 1025.1 - 0.8 - - - - - - -
27/03:30am 13.2 SE 13 21 1025.1 - 0.8 - - - - - - -
27/03:00am 13.2 SSE 9 16 1025.1 - 0.8 - - - - - - -
27/02:30am 13.8 S 11 17 1025.1 - 0.8 - - - - - - -
27/02:00am 13.6 SSW 12 16 1025.0 - 0.8 - - - - - - -
27/01:30am 13.2 SSW 15 19 1025.1 - 0.8 - - - - - - -
27/01:00am 13.5 S 13 19 1025.2 - 0.8 - - - - - - -
27/12:30am 14.1 SSW 13 19 1025.2 - 0.8 - - - - - - -
27/12:00am 13.8 S 9 14 1025.1 - 0.8 - - - - - - -
 
Date/Time
WST
Temp
°C
Wind Pressure Rain since
9am
mm
Weather Cloud Vis
km
Sea
Height
m
Swell
Dir  Spd
kts
Gust
kts
hPa Trend Height
m
Period
s
Dir
26/11:30pm 14.1 S 12 19 1025.0 - 0.8 - - - - - - -
26/11:00pm 13.9 S 12 16 1025.0 - 0.8 - - - - - - -
26/10:30pm 14.3 S 13 20 1024.8 - 0.8 - - - - - - -
26/10:00pm 14.4 S 13 20 1024.7 - 0.8 - - - - - - -
26/09:30pm 14.5 S 11 16 1024.7 - 0.8 - - - - - - -
26/09:00pm 14.4 S 12 16 1024.6 - 0.8 - - - - - - -
26/08:30pm 14.2 S 12 18 1024.5 - 0.8 - - - - - - -
26/08:00pm 14.3 S 16 25 1024.1 - 0.8 - - - - - - -
26/07:57pm 14.4 S 15 25 1024.1 - 0.8 - - - - - - -
26/07:30pm 14.2 SSE 12 17 1023.8 - 0.8 - - - - - - -
26/07:00pm 14.2 S 12 16 1023.5 - 0.8 - - - - - - -
26/06:30pm 14.5 SSW 15 20 1023.2 - 0.8 - - - - - - -
26/06:00pm 14.6 SSW 15 19 1022.7 - 0.8 - - - - - - -
26/05:30pm 14.7 S 18 23 1022.4 - 0.8 - - - - - - -
26/05:00pm 14.7 S 17 21 1022.2 - 0.8 - - - - - - -
26/04:30pm 14.9 SSW 15 20 1022.0 - 0.8 - - - - - - -
26/04:00pm 14.4 S 17 22 1022.0 - 0.8 - - - - - - -
26/03:30pm 15.2 SSW 15 21 1021.7 - 0.8 - - - - - - -
26/03:00pm 15.5 SSW 15 23 1021.5 - 0.8 - - - - - - -
26/02:30pm 15.4 SSW 15 20 1021.3 - 0.8 - - - - - - -
26/02:00pm 15.8 S 12 16 1021.2 - 0.8 - - - - - - -
26/01:30pm 15.7 SSW 13 18 1021.2 - 0.8 - - - - - - -
26/01:00pm 16.4 SSW 15 20 1021.1 - 0.8 - - - - - - -
26/12:30pm 15.5 S 11 14 1021.2 - 0.8 - - - - - - -
26/12:00pm 14.5 S 13 18 1021.5 - 0.8 Rain - - - - - -
26/11:30am 14.6 SSW 14 21 1021.8 - 0.6 - - - - - - -
26/11:00am 14.7 SW 17 22 1022.1 - 0.6 - - - - - - -
26/10:30am 14.2 SW 14 20 1022.1 - 0.4 - - - - - - -
26/10:00am 15.9 SW 17 23 1021.8 - 0.0 - - - - - - -
26/09:30am 15.6 SW 17 21 1021.5 - 0.0 - - - - - - -
26/09:00am 15.1 SW 18 23 1021.1 - 2.0 - - - - - - -
26/08:30am 14.6 SSW 18 24 1020.7 - 2.0 - - - - - - -
26/08:20am 14.7 WSW 16 21 1020.6 - 2.0 - - - - - - -
26/08:10am 14.3 SW 16 22 1020.6 - 2.0 - - - - - - -
26/08:00am 14.5 SSW 20 25 1020.5 - 2.0 - - - - - - -
26/07:30am 15.5 SW 22 30 1020.0 - 2.0 - - - - - - -
26/07:22am 15.6 SW 19 29 1019.8 - 2.0 - - - - - - -
26/07:00am 15.6 WSW 21 25 1019.5 - 2.0 - - - - - - -
26/06:30am 16.0 WSW 18 25 1019.4 - 2.0 - - - - - - -
26/06:00am 16.0 SW 18 25 1018.9 - 2.0 - - - - - - -
26/05:30am 15.7 SW 19 24 1018.8 - 2.0 - - - - - - -
26/05:04am 15.4 SW 16 27 1018.5 - 2.0 - - - - - - -
26/05:00am 15.3 SW 16 20 1018.5 - 2.0 - - - - - - -
26/04:30am 15.9 WSW 20 24 1018.4 - 2.0 - - - - - - -
26/04:18am 15.4 SW 18 28 1018.5 - 2.0 - - - - - - -
26/04:00am 15.8 WSW 23 29 1018.3 - 2.0 - - - - - - -
26/03:30am 15.9 WSW 20 26 1018.1 - 2.0 - - - - - - -
26/03:00am 16.3 WSW 21 28 1018.1 - 2.0 - - - - - - -
26/02:42am 16.0 WSW 22 32 1018.1 - 2.0 - - - - - - -
26/02:30am 16.4 WSW 22 27 1017.9 - 2.0 - - - - - - -
26/02:25am 16.2 WSW 21 26 1018.0 - 2.0 - - - - - - -
26/02:00am 15.9 W 24 30 1017.6 - 2.0 - - - - - - -
26/01:30am 16.2 WSW 23 31 1017.5 - 2.0 - - - - - - -
26/01:00am 16.1 WSW 26 30 1017.3 - 2.0 - - - - - - -
26/12:30am 16.3 WSW 24 31 1017.2 - 2.0 - - - - - - -
26/12:00am 17.0 WSW 25 30 1017.0 - 2.0 - - - - - - -
 
Date/Time
WST
Temp
°C
Wind Pressure Rain since
9am
mm
Weather Cloud Vis
km
Sea
Height
m
Swell
Dir  Spd
kts
Gust
kts
hPa Trend Height
m
Period
s
Dir
25/11:30pm 17.1 WSW 27 32 1016.8 - 2.0 - - - - - - -
25/11:00pm 17.2 WSW 28 34 1016.6 - 2.0 - - - - - - -
25/10:30pm 17.2 WSW 28 36 1016.6 - 2.0 - - - - - - -
25/10:00pm 17.2 WSW 27 33 1016.5 - 1.8 - - - - - - -
25/09:56pm 17.3 W 27 33 1016.4 - 1.4 - - - - - - -
25/09:30pm 18.5 WNW 32 39 1016.0 - 1.4 - - - - - - -
25/09:00pm 19.1 WNW 29 35 1015.9 - 1.4 Recent precip. - - - - - -
25/08:30pm 18.4 WNW 30 37 1016.0 - 1.4 - - - - - - -
25/08:00pm 19.0 WNW 29 34 1016.2 - 1.0 - - - - - - -
25/07:30pm 19.1 WNW 26 31 1016.2 - 1.0 - - - - - - -
25/07:00pm 18.8 WNW 27 33 1016.2 - 1.0 - - - - - - -
25/06:30pm 18.5 NW 27 32 1016.2 - 1.0 - - - - - - -
25/06:00pm 17.7 NW 25 31 1016.3 - 1.0 Rain - - - - - -
25/05:30pm 18.2 NW 25 30 1016.2 - 0.2 - - - - - - -
25/05:00pm 17.7 NW 25 36 1016.4 - 0.2 - - - - - - -
25/04:57pm 18.5 NW 25 36 1016.3 - 0.2 - - - - - - -
25/04:30pm 18.6 NW 24 28 1016.4 - 0.2 - - - - - - -
25/04:00pm 18.9 NW 25 30 1016.2 - 0.2 - - - - - - -
25/03:30pm 18.7 NW 25 32 1016.5 - 0.2 - - - - - - -
25/03:00pm 19.0 NW 26 33 1016.5 - 0.2 - - - - - - -
25/02:32pm 18.8 WNW 25 35 1016.6 - 0.2 - - - - - - -
25/02:30pm 19.1 NW 24 31 1016.7 - 0.2 - - - - - - -
25/02:00pm 19.7 NW 24 28 1016.8 - 0.2 - - - - - - -
25/01:30pm 19.9 NW 26 31 1016.9 - 0.2 - - - - - - -
25/01:00pm 20.0 NW 25 29 1017.2 - 0.0 - - - - - - -
25/12:30pm 19.8 NW 24 28 1017.5 - 0.0 - - - - - - -
25/12:00pm 19.7 NW 24 29 1018.0 - 0.0 - - - - - - -
25/11:30am 19.6 NW 25 30 1018.4 - 0.0 - - - - - - -
25/11:00am 19.6 NW 25 29 1018.7 - 0.0 - - - - - - -
25/10:30am 19.8 NW 23 27 1018.9 - 0.0 - - - - - - -
25/10:00am 19.5 NNW 14 23 1019.1 - 0.0 - - - - - - -
25/09:30am 18.9 NNW 12 15 1019.3 - 0.0 - - - - - - -
25/09:00am 17.4 N 9 13 1019.5 - 0.4 - - - - - - -
25/08:30am 16.2 N 10 13 1019.4 - 0.4 - - - - - - -
25/08:00am 16.6 NNW 10 13 1019.3 - 0.4 - - - - - - -
25/07:30am 16.2 N 10 14 1019.3 - 0.4 - - - - - - -
25/07:00am 16.4 NNW 11 18 1019.2 - 0.4 - - - - - - -
25/06:30am 15.8 N 8 12 1019.3 - 0.4 - - - - - - -
25/06:00am 15.9 N 11 17 1019.1 - 0.4 - - - - - - -
25/05:30am 16.3 N 7 12 1019.1 - 0.4 - - - - - - -
25/05:00am 16.4 N 10 13 1018.9 - 0.4 - - - - - - -
25/04:30am 15.5 N 11 14 1019.1 - 0.4 - - - - - - -
25/04:00am 15.2 N 11 15 1019.1 - 0.4 - - - - - - -
25/03:30am 15.8 N 7 10 1019.4 - 0.4 - - - - - - -
25/03:00am 15.6 N 9 13 1019.3 - 0.4 - - - - - - -
25/02:30am 17.7 NW 11 14 1019.6 - 0.4 - - - - - - -
25/02:00am 18.1 WNW 13 16 1019.7 - 0.4 - - - - - - -

Other Formats:

Comma delimited format used in spreadsheet applications
http://www.bom.gov.au/fwo/IDW60701/IDW60701.94601.axf

JavaScript Object Notation format (JSON) in row-major order
http://www.bom.gov.au/fwo/IDW60701/IDW60701.94601.json